createdAt,value
2018-01-10T00:00:42.070Z,1010.03
2018-01-10T00:01:42.041Z,1010.10
2018-01-10T00:02:42.015Z,1010.09
2018-01-10T00:03:41.990Z,1010.10
2018-01-10T00:04:41.962Z,1010.06
2018-01-10T00:05:41.932Z,1010.07
2018-01-10T00:06:41.907Z,1010.05
2018-01-10T00:07:41.879Z,1010.03
2018-01-10T00:08:41.852Z,1010.02
2018-01-10T00:09:41.825Z,1009.97
2018-01-10T00:10:41.798Z,1009.93
2018-01-10T00:11:41.770Z,1009.96
2018-01-10T00:12:41.744Z,1010.00
2018-01-10T00:13:41.716Z,1009.97
2018-01-10T00:14:41.688Z,1009.95
2018-01-10T00:15:41.661Z,1009.95
2018-01-10T00:16:41.635Z,1009.99
2018-01-10T00:17:41.857Z,1009.99
2018-01-10T00:18:41.580Z,1010.01
2018-01-10T00:19:41.555Z,1010.01
2018-01-10T00:20:41.526Z,1010.02
2018-01-10T00:21:41.498Z,1010.07
2018-01-10T00:22:41.470Z,1010.06
2018-01-10T00:23:41.445Z,1010.08
2018-01-10T00:24:41.417Z,1010.09
2018-01-10T00:25:41.390Z,1010.08
2018-01-10T00:26:41.362Z,1010.11
2018-01-10T00:27:41.335Z,1010.12
2018-01-10T00:28:41.458Z,1010.12
2018-01-10T00:29:41.280Z,1010.06
2018-01-10T00:30:41.253Z,1010.06
2018-01-10T00:31:41.228Z,1010.10
2018-01-10T00:32:41.200Z,1010.10
2018-01-10T00:33:42.223Z,1010.12
2018-01-10T00:34:41.145Z,1010.18
2018-01-10T00:35:41.120Z,1010.13
2018-01-10T00:36:41.092Z,1010.15
2018-01-10T00:37:41.065Z,1010.13
2018-01-10T00:38:41.041Z,1010.08
2018-01-10T00:39:41.012Z,1010.04
2018-01-10T00:40:40.984Z,1010.03
2018-01-10T00:41:40.957Z,1010.03
2018-01-10T00:42:40.937Z,1010.00
2018-01-10T00:43:40.904Z,1010.01
2018-01-10T00:44:40.876Z,1009.99
2018-01-10T00:45:40.848Z,1009.97
2018-01-10T00:46:40.821Z,1009.99
2018-01-10T00:47:40.794Z,1009.92
2018-01-10T00:48:40.767Z,1009.92
2018-01-10T00:49:40.740Z,1009.87
2018-01-10T00:50:40.713Z,1009.86
2018-01-10T00:51:40.686Z,1009.87
2018-01-10T00:52:40.659Z,1009.81
2018-01-10T00:53:40.632Z,1009.87
2018-01-10T00:54:40.606Z,1009.87
2018-01-10T00:55:40.828Z,1009.83
2018-01-10T00:56:40.552Z,1009.92
2018-01-10T00:57:40.524Z,1009.92
2018-01-10T00:58:40.497Z,1009.91
2018-01-10T00:59:40.470Z,1009.84
2018-01-10T01:00:40.443Z,1009.81
2018-01-10T01:01:40.415Z,1009.77
2018-01-10T01:02:40.388Z,1009.75
2018-01-10T01:03:40.362Z,1009.69
2018-01-10T01:04:40.335Z,1009.71
2018-01-10T01:05:40.307Z,1009.65
2018-01-10T01:06:40.282Z,1009.59
2018-01-10T01:07:40.254Z,1009.60
2018-01-10T01:08:40.229Z,1009.58
2018-01-10T01:09:40.200Z,1009.59
2018-01-10T01:10:40.173Z,1009.64
2018-01-10T01:11:40.146Z,1009.61
2018-01-10T01:12:40.121Z,1009.65
2018-01-10T01:13:40.094Z,1009.60
2018-01-10T01:14:40.066Z,1009.61
2018-01-10T01:15:40.039Z,1009.67
2018-01-10T01:16:40.013Z,1009.59
2018-01-10T01:17:39.986Z,1009.63
2018-01-10T01:18:39.960Z,1009.63
2018-01-10T01:19:39.932Z,1009.62
2018-01-10T01:20:39.910Z,1009.63
2018-01-10T01:21:39.878Z,1009.63
2018-01-10T01:22:39.852Z,1009.61
2018-01-10T01:23:39.826Z,1009.59
2018-01-10T01:24:39.800Z,1009.61
2018-01-10T01:25:39.773Z,1009.62
2018-01-10T01:26:39.745Z,1009.62
2018-01-10T01:27:39.718Z,1009.65
2018-01-10T01:28:39.693Z,1009.66
2018-01-10T01:29:39.665Z,1009.72
2018-01-10T01:30:39.789Z,1009.73
2018-01-10T01:31:39.612Z,1009.73
2018-01-10T01:32:39.586Z,1009.68
2018-01-10T01:33:39.559Z,1009.66
2018-01-10T01:34:39.532Z,1009.68
2018-01-10T01:35:39.506Z,1009.64
2018-01-10T01:36:39.478Z,1009.61
2018-01-10T01:37:39.453Z,1009.61
2018-01-10T01:38:39.425Z,1009.55
2018-01-10T01:39:39.399Z,1009.56
2018-01-10T01:40:39.372Z,1009.58
2018-01-10T01:41:39.345Z,1009.60
2018-01-10T01:42:39.324Z,1009.61
2018-01-10T01:43:39.292Z,1009.62
2018-01-10T01:44:39.269Z,1009.62
2018-01-10T01:45:39.239Z,1009.67
2018-01-10T01:46:39.213Z,1009.67
2018-01-10T01:47:39.443Z,1009.68
2018-01-10T01:48:39.160Z,1009.73
2018-01-10T01:49:39.132Z,1009.76
2018-01-10T01:50:39.112Z,1009.73
2018-01-10T01:51:39.078Z,1009.73
2018-01-10T01:52:39.052Z,1009.74
2018-01-10T01:53:39.024Z,1009.73
2018-01-10T01:54:38.997Z,1009.81
2018-01-10T01:55:38.971Z,1009.81
2018-01-10T01:56:38.945Z,1009.82
2018-01-10T01:57:38.923Z,1009.86
2018-01-10T01:58:38.891Z,1009.91
2018-01-10T01:59:38.864Z,1009.93
2018-01-10T02:00:38.836Z,1009.94
2018-01-10T02:01:38.810Z,1009.94
2018-01-10T02:02:38.782Z,1009.99
2018-01-10T02:03:38.755Z,1010.03
2018-01-10T02:04:38.728Z,1009.99
2018-01-10T02:05:38.701Z,1010.00
2018-01-10T02:06:38.673Z,1009.99
2018-01-10T02:07:38.646Z,1010.01
2018-01-10T02:08:38.720Z,1010.05
2018-01-10T02:09:38.591Z,1010.03
2018-01-10T02:10:38.566Z,1010.05
2018-01-10T02:11:38.539Z,1010.00
2018-01-10T02:12:38.513Z,1010.02
2018-01-10T02:13:38.484Z,1010.00
2018-01-10T02:14:38.456Z,1009.96
2018-01-10T02:15:38.429Z,1009.91
2018-01-10T02:16:38.402Z,1009.89
2018-01-10T02:17:38.374Z,1009.91
2018-01-10T02:18:38.347Z,1009.87
2018-01-10T02:19:38.320Z,1009.86
2018-01-10T02:20:38.294Z,1009.81
2018-01-10T02:21:38.266Z,1009.79
2018-01-10T02:22:38.237Z,1009.76
2018-01-10T02:23:38.211Z,1009.84
2018-01-10T02:24:38.187Z,1009.85
2018-01-10T02:25:38.156Z,1009.87
2018-01-10T02:26:38.129Z,1009.88
2018-01-10T02:27:38.103Z,1009.89
2018-01-10T02:28:38.075Z,1009.80
2018-01-10T02:29:38.047Z,1009.83
2018-01-10T02:30:38.021Z,1009.79
2018-01-10T02:31:38.245Z,1009.76
2018-01-10T02:32:37.968Z,1009.76
2018-01-10T02:33:37.940Z,1009.76
2018-01-10T02:34:37.912Z,1009.78
2018-01-10T02:35:37.885Z,1009.79
2018-01-10T02:36:37.858Z,1009.78
2018-01-10T02:37:37.830Z,1009.76
2018-01-10T02:38:37.803Z,1009.72
2018-01-10T02:39:37.777Z,1009.75
2018-01-10T02:40:37.751Z,1009.71
2018-01-10T02:41:37.722Z,1009.68
2018-01-10T02:42:37.698Z,1009.68
2018-01-10T02:43:37.668Z,1009.65
2018-01-10T02:44:37.641Z,1009.64
2018-01-10T02:45:37.614Z,1009.55
2018-01-10T02:46:37.588Z,1009.54
2018-01-10T02:47:37.563Z,1009.55
2018-01-10T02:48:37.784Z,1009.53
2018-01-10T02:49:37.507Z,1009.52
2018-01-10T02:50:37.481Z,1009.48
2018-01-10T02:51:37.459Z,1009.44
2018-01-10T02:52:37.428Z,1009.45
2018-01-10T02:53:37.401Z,1009.43
2018-01-10T02:54:37.375Z,1009.39
2018-01-10T02:55:37.348Z,1009.37
2018-01-10T02:56:37.323Z,1009.34
2018-01-10T02:57:37.295Z,1009.36
2018-01-10T02:58:37.269Z,1009.34
2018-01-10T02:59:37.244Z,1009.34
2018-01-10T03:00:37.467Z,1009.32
2018-01-10T03:01:37.189Z,1009.33
2018-01-10T03:02:37.163Z,1009.35
2018-01-10T03:03:37.138Z,1009.31
2018-01-10T03:04:37.112Z,1009.31
2018-01-10T03:05:37.234Z,1009.27
2018-01-10T03:06:37.058Z,1009.30
2018-01-10T03:07:37.032Z,1009.29
2018-01-10T03:08:37.005Z,1009.28
2018-01-10T03:09:36.979Z,1009.31
2018-01-10T03:10:37.052Z,1009.32
2018-01-10T03:11:36.927Z,1009.31
2018-01-10T03:12:36.900Z,1009.33
2018-01-10T03:13:36.872Z,1009.38
2018-01-10T03:14:36.846Z,1009.39
2018-01-10T03:15:36.821Z,1009.36
2018-01-10T03:16:36.794Z,1009.37
2018-01-10T03:17:36.767Z,1009.36
2018-01-10T03:18:36.740Z,1009.38
2018-01-10T03:19:36.716Z,1009.43
2018-01-10T03:20:36.688Z,1009.42
2018-01-10T03:21:36.663Z,1009.42
2018-01-10T03:22:36.634Z,1009.42
2018-01-10T03:23:36.607Z,1009.47
2018-01-10T03:24:36.586Z,1009.46
2018-01-10T03:25:36.554Z,1009.51
2018-01-10T03:26:36.527Z,1009.54
2018-01-10T03:27:36.499Z,1009.57
2018-01-10T03:28:36.474Z,1009.58
2018-01-10T03:29:36.445Z,1009.61
2018-01-10T03:30:36.420Z,1009.63
2018-01-10T03:31:36.392Z,1009.64
2018-01-10T03:32:36.665Z,1009.64
2018-01-10T03:33:36.338Z,1009.64
2018-01-10T03:34:36.311Z,1009.58
2018-01-10T03:35:36.284Z,1009.54
2018-01-10T03:36:36.259Z,1009.51
2018-01-10T03:37:36.230Z,1009.47
2018-01-10T03:38:36.305Z,1009.43
2018-01-10T03:39:36.179Z,1009.39
2018-01-10T03:40:36.151Z,1009.41
2018-01-10T03:41:36.124Z,1009.44
2018-01-10T03:42:36.097Z,1009.42
2018-01-10T03:43:36.220Z,1009.44
2018-01-10T03:44:36.043Z,1009.39
2018-01-10T03:45:36.017Z,1009.36
2018-01-10T03:46:35.989Z,1009.36
2018-01-10T03:47:35.963Z,1009.41
2018-01-10T03:48:35.938Z,1009.42
2018-01-10T03:49:35.909Z,1009.41
2018-01-10T03:50:35.883Z,1009.43
2018-01-10T03:51:35.857Z,1009.44
2018-01-10T03:52:35.831Z,1009.43
2018-01-10T03:53:35.803Z,1009.40
2018-01-10T03:54:36.027Z,1009.41
2018-01-10T03:55:35.750Z,1009.37
2018-01-10T03:56:35.725Z,1009.32
2018-01-10T03:57:35.696Z,1009.34
2018-01-10T03:58:35.669Z,1009.32
2018-01-10T03:59:35.650Z,1009.30
2018-01-10T04:00:35.616Z,1009.29
2018-01-10T04:01:35.842Z,1009.29
2018-01-10T04:02:35.563Z,1009.29
2018-01-10T04:03:35.537Z,1009.21
2018-01-10T04:04:35.511Z,1009.23
2018-01-10T04:05:35.483Z,1009.20
2018-01-10T04:06:35.457Z,1009.17
2018-01-10T04:07:35.433Z,1009.19
2018-01-10T04:08:35.406Z,1009.19
2018-01-10T04:09:35.380Z,1009.24
2018-01-10T04:10:35.405Z,1009.20
2018-01-10T04:11:35.328Z,1009.14
2018-01-10T04:12:35.301Z,1009.15
2018-01-10T04:13:35.274Z,1009.14
2018-01-10T04:14:35.249Z,1009.15
2018-01-10T04:15:35.222Z,1009.09
2018-01-10T04:16:35.198Z,1009.08
2018-01-10T04:17:35.169Z,1009.08
2018-01-10T04:18:35.144Z,1009.08
2018-01-10T04:19:35.117Z,1009.08
2018-01-10T04:20:35.092Z,1009.09
2018-01-10T04:21:35.065Z,1009.10
2018-01-10T04:22:35.038Z,1009.12
2018-01-10T04:23:35.012Z,1009.13
2018-01-10T04:24:34.987Z,1009.16
2018-01-10T04:25:35.109Z,1009.16
2018-01-10T04:26:34.938Z,1009.20
2018-01-10T04:27:34.907Z,1009.13
2018-01-10T04:28:34.881Z,1009.16
2018-01-10T04:29:34.853Z,1009.15
2018-01-10T04:30:34.827Z,1009.12
2018-01-10T04:31:34.801Z,1009.14
2018-01-10T04:32:34.775Z,1009.10
2018-01-10T04:33:34.847Z,1009.12
2018-01-10T04:34:34.721Z,1009.04
2018-01-10T04:35:34.696Z,1009.05
2018-01-10T04:36:34.668Z,1009.02
2018-01-10T04:37:34.642Z,1008.98
2018-01-10T04:38:34.866Z,1008.96
2018-01-10T04:39:34.589Z,1008.96
2018-01-10T04:40:34.564Z,1008.95
2018-01-10T04:41:34.535Z,1008.92
2018-01-10T04:42:34.512Z,1008.90
2018-01-10T04:43:34.733Z,1008.94
2018-01-10T04:44:34.457Z,1008.91
2018-01-10T04:45:34.431Z,1008.92
2018-01-10T04:46:34.404Z,1008.89
2018-01-10T04:47:34.377Z,1008.90
2018-01-10T04:48:34.350Z,1008.89
2018-01-10T04:49:34.323Z,1008.86
2018-01-10T04:50:34.298Z,1008.86
2018-01-10T04:51:34.271Z,1008.88
2018-01-10T04:52:34.245Z,1008.87
2018-01-10T04:53:34.217Z,1008.88
2018-01-10T04:54:34.190Z,1008.92
2018-01-10T04:55:34.165Z,1008.92
2018-01-10T04:56:34.139Z,1008.95
2018-01-10T04:57:34.111Z,1008.98
2018-01-10T04:58:34.084Z,1009.00
2018-01-10T04:59:34.058Z,1009.00
2018-01-10T05:00:34.032Z,1009.06
2018-01-10T05:01:34.004Z,1009.06
2018-01-10T05:02:33.979Z,1009.10
2018-01-10T05:03:33.952Z,1009.09
2018-01-10T05:04:33.926Z,1009.08
2018-01-10T05:05:33.899Z,1009.10
2018-01-10T05:06:33.875Z,1009.13
2018-01-10T05:07:33.846Z,1009.11
2018-01-10T05:08:33.820Z,1009.12
2018-01-10T05:09:33.791Z,1009.11
2018-01-10T05:10:33.771Z,1009.13
2018-01-10T05:11:33.741Z,1009.14
2018-01-10T05:12:33.713Z,1009.18
2018-01-10T05:13:33.686Z,1009.20
2018-01-10T05:14:33.660Z,1009.23
2018-01-10T05:15:33.633Z,1009.28
2018-01-10T05:16:33.607Z,1009.29
2018-01-10T05:17:33.579Z,1009.27
2018-01-10T05:18:33.805Z,1009.24
2018-01-10T05:19:33.528Z,1009.26
2018-01-10T05:20:33.501Z,1009.24
2018-01-10T05:21:33.474Z,1009.18
2018-01-10T05:22:33.447Z,1009.18
2018-01-10T05:23:33.423Z,1009.13
2018-01-10T05:24:33.495Z,1009.08
2018-01-10T05:25:33.368Z,1009.08
2018-01-10T05:26:33.341Z,1009.07
2018-01-10T05:27:33.314Z,1009.10
2018-01-10T05:28:33.288Z,1009.08
2018-01-10T05:29:33.411Z,1009.08
2018-01-10T05:30:33.234Z,1009.05
2018-01-10T05:31:33.208Z,1009.04
2018-01-10T05:32:33.183Z,1008.98
2018-01-10T05:33:33.156Z,1008.98
2018-01-10T05:34:33.128Z,1008.96
2018-01-10T05:35:33.102Z,1008.99
2018-01-10T05:36:33.077Z,1008.99
2018-01-10T05:37:33.049Z,1009.01
2018-01-10T05:38:33.023Z,1009.00
2018-01-10T05:39:32.997Z,1008.99
2018-01-10T05:40:32.972Z,1009.03
2018-01-10T05:41:32.943Z,1009.02
2018-01-10T05:42:32.918Z,1009.05
2018-01-10T05:43:32.893Z,1009.09
2018-01-10T05:44:32.867Z,1009.14
2018-01-10T05:45:32.838Z,1009.18
2018-01-10T05:46:32.820Z,1009.18
2018-01-10T05:47:32.787Z,1009.23
2018-01-10T05:48:32.763Z,1009.20
2018-01-10T05:49:32.886Z,1009.25
2018-01-10T05:50:32.710Z,1009.31
2018-01-10T05:51:32.684Z,1009.30
2018-01-10T05:52:32.659Z,1009.32
2018-01-10T05:53:32.631Z,1009.33
2018-01-10T05:54:32.606Z,1009.28
2018-01-10T05:55:32.581Z,1009.29
2018-01-10T05:56:32.554Z,1009.25
2018-01-10T05:57:32.527Z,1009.26
2018-01-10T05:58:32.503Z,1009.22
2018-01-10T05:59:32.778Z,1009.17
2018-01-10T06:00:32.451Z,1009.15
2018-01-10T06:01:32.426Z,1009.10
2018-01-10T06:02:32.400Z,1009.07
2018-01-10T06:03:32.374Z,1009.06
2018-01-10T06:04:32.598Z,1009.00
2018-01-10T06:05:32.324Z,1009.01
2018-01-10T06:06:32.296Z,1009.01
2018-01-10T06:07:32.271Z,1009.06
2018-01-10T06:08:32.246Z,1009.06
2018-01-10T06:09:32.218Z,1009.06
2018-01-10T06:10:32.194Z,1009.06
2018-01-10T06:11:32.167Z,1009.07
2018-01-10T06:12:32.142Z,1009.10
2018-01-10T06:13:32.116Z,1009.10
2018-01-10T06:14:32.089Z,1009.11
2018-01-10T06:15:32.065Z,1009.06
2018-01-10T06:16:32.040Z,1009.08
2018-01-10T06:17:32.014Z,1009.07
2018-01-10T06:18:31.987Z,1009.09
2018-01-10T06:19:32.112Z,1009.12
2018-01-10T06:20:31.935Z,1009.05
2018-01-10T06:21:31.908Z,1009.07
2018-01-10T06:22:31.884Z,1009.07
2018-01-10T06:23:31.858Z,1009.06
2018-01-10T06:24:31.832Z,1009.06
2018-01-10T06:25:31.817Z,1009.08
2018-01-10T06:26:31.779Z,1009.08
2018-01-10T06:27:31.755Z,1009.17
2018-01-10T06:28:31.728Z,1009.20
2018-01-10T06:29:31.703Z,1009.22
2018-01-10T06:30:31.677Z,1009.23
2018-01-10T06:31:31.652Z,1009.27
2018-01-10T06:32:31.626Z,1009.30
2018-01-10T06:33:31.598Z,1009.28
2018-01-10T06:34:31.573Z,1009.31
2018-01-10T06:35:31.548Z,1009.23
2018-01-10T06:36:31.823Z,1009.27
2018-01-10T06:37:31.496Z,1009.29
2018-01-10T06:38:31.470Z,1009.37
2018-01-10T06:39:31.446Z,1009.50
2018-01-10T06:40:31.421Z,1009.51
2018-01-10T06:41:31.394Z,1009.44
2018-01-10T06:42:31.368Z,1009.45
2018-01-10T06:43:31.343Z,1009.50
2018-01-10T06:44:31.317Z,1009.50
2018-01-10T06:45:31.292Z,1009.42
2018-01-10T06:46:31.266Z,1009.42
2018-01-10T06:47:31.491Z,1009.42
2018-01-10T06:48:31.216Z,1009.44
2018-01-10T06:49:31.188Z,1009.47
2018-01-10T06:50:31.163Z,1009.45
2018-01-10T06:51:31.138Z,1009.47
2018-01-10T06:52:31.111Z,1009.44
2018-01-10T06:53:31.085Z,1009.44
2018-01-10T06:54:31.060Z,1009.39
2018-01-10T06:55:31.033Z,1009.43
2018-01-10T06:56:31.007Z,1009.47
2018-01-10T06:57:31.082Z,1009.44
2018-01-10T06:58:30.995Z,1009.46
2018-01-10T06:59:30.931Z,1009.44
2018-01-10T07:00:30.903Z,1009.47
2018-01-10T07:01:30.877Z,1009.45
2018-01-10T07:02:30.952Z,1009.46
2018-01-10T07:03:30.826Z,1009.47
2018-01-10T07:04:30.802Z,1009.43
2018-01-10T07:05:30.773Z,1009.37
2018-01-10T07:06:30.747Z,1009.39
2018-01-10T07:07:30.972Z,1009.39
2018-01-10T07:08:30.696Z,1009.38
2018-01-10T07:09:30.669Z,1009.32
2018-01-10T07:10:30.645Z,1009.35
2018-01-10T07:11:30.618Z,1009.35
2018-01-10T07:12:30.592Z,1009.32
2018-01-10T07:13:30.816Z,1009.29
2018-01-10T07:14:30.542Z,1009.30
2018-01-10T07:15:30.516Z,1009.27
2018-01-10T07:16:30.489Z,1009.30
2018-01-10T07:17:30.464Z,1009.26
2018-01-10T07:18:30.438Z,1009.21
2018-01-10T07:19:30.414Z,1009.22
2018-01-10T07:20:30.388Z,1009.19
2018-01-10T07:21:30.361Z,1009.17
2018-01-10T07:22:30.337Z,1009.16
2018-01-10T07:23:30.314Z,1009.18
2018-01-10T07:24:30.285Z,1009.15
2018-01-10T07:25:30.453Z,1009.16
2018-01-10T07:26:30.234Z,1009.16
2018-01-10T07:27:30.209Z,1009.15
2018-01-10T07:28:30.183Z,1009.13
2018-01-10T07:29:30.156Z,1009.11
2018-01-10T07:30:30.131Z,1009.11
2018-01-10T07:31:30.105Z,1009.06
2018-01-10T07:32:30.079Z,1009.06
2018-01-10T07:33:30.053Z,1009.01
2018-01-10T07:34:30.040Z,1009.05
2018-01-10T07:35:30.003Z,1008.97
2018-01-10T07:36:29.975Z,1009.04
2018-01-10T07:37:30.101Z,1009.02
2018-01-10T07:38:29.925Z,1008.99
2018-01-10T07:39:29.901Z,1009.01
2018-01-10T07:40:29.873Z,1009.03
2018-01-10T07:41:29.847Z,1009.01
2018-01-10T07:42:30.070Z,1009.07
2018-01-10T07:43:29.795Z,1009.05
2018-01-10T07:44:29.769Z,1009.08
2018-01-10T07:45:29.742Z,1009.07
2018-01-10T07:46:29.716Z,1009.11
2018-01-10T07:47:29.842Z,1009.10
2018-01-10T07:48:29.668Z,1009.14
2018-01-10T07:49:29.638Z,1009.15
2018-01-10T07:50:29.613Z,1009.18
2018-01-10T07:51:29.587Z,1009.18
2018-01-10T07:52:29.562Z,1009.20
2018-01-10T07:53:29.540Z,1009.18
2018-01-10T07:54:29.514Z,1009.18
2018-01-10T07:55:29.489Z,1009.24
2018-01-10T07:56:29.463Z,1009.29
2018-01-10T07:57:29.430Z,1009.33
2018-01-10T07:58:29.407Z,1009.35
2018-01-10T07:59:29.379Z,1009.36
2018-01-10T08:00:29.354Z,1009.37
2018-01-10T08:01:29.326Z,1009.40
2018-01-10T08:02:29.302Z,1009.42
2018-01-10T08:03:29.276Z,1009.38
2018-01-10T08:04:29.251Z,1009.39
2018-01-10T08:05:29.225Z,1009.39
2018-01-10T08:06:29.198Z,1009.42
2018-01-10T08:07:29.172Z,1009.42
2018-01-10T08:08:29.148Z,1009.42
2018-01-10T08:09:29.158Z,1009.48
2018-01-10T08:10:29.096Z,1009.47
2018-01-10T08:11:29.074Z,1009.48
2018-01-10T08:12:29.299Z,1009.45
2018-01-10T08:13:29.017Z,1009.40
2018-01-10T08:14:28.992Z,1009.40
2018-01-10T08:15:28.967Z,1009.39
2018-01-10T08:16:28.941Z,1009.36
2018-01-10T08:17:28.920Z,1009.41
2018-01-10T08:18:28.894Z,1009.52
2018-01-10T08:19:28.869Z,1009.50
2018-01-10T08:20:28.838Z,1009.50
2018-01-10T08:21:28.812Z,1009.47
2018-01-10T08:22:28.786Z,1009.51
2018-01-10T08:23:28.762Z,1009.45
2018-01-10T08:24:28.738Z,1009.46
2018-01-10T08:25:28.708Z,1009.43
2018-01-10T08:26:28.684Z,1009.47
2018-01-10T08:27:28.658Z,1009.48
2018-01-10T08:28:28.634Z,1009.48
2018-01-10T08:29:28.606Z,1009.48
2018-01-10T08:30:28.582Z,1009.47
2018-01-10T08:31:28.555Z,1009.48
2018-01-10T08:32:28.530Z,1009.53
2018-01-10T08:33:28.503Z,1009.49
2018-01-10T08:34:28.478Z,1009.47
2018-01-10T08:35:28.454Z,1009.50
2018-01-10T08:37:27.320Z,1009.49
2018-01-10T08:37:28.410Z,1009.55
2018-01-10T08:38:28.385Z,1009.55
2018-01-10T08:39:28.362Z,1009.58
2018-01-10T08:40:28.336Z,1009.56
2018-01-10T08:41:28.311Z,1009.57
2018-01-10T08:42:28.285Z,1009.59
2018-01-10T08:45:24.942Z,1009.56
2018-01-10T08:46:12.180Z,1009.54
2018-01-10T08:47:12.156Z,1009.56
2018-01-10T08:48:12.132Z,1009.60
2018-01-10T08:49:12.103Z,1009.58
2018-01-10T08:50:12.078Z,1009.60
2018-01-10T08:51:12.056Z,1009.59
2018-01-10T08:52:37.712Z,1009.58
2018-01-10T08:53:12.012Z,1009.54
2018-01-10T08:54:11.988Z,1009.53
2018-01-10T08:55:11.964Z,1009.54
2018-01-10T08:56:11.942Z,1009.48
2018-01-10T08:57:11.914Z,1009.52
2018-01-10T08:58:11.888Z,1009.55
2018-01-10T09:00:56.510Z,1009.45
2018-01-10T09:01:56.486Z,1009.50
2018-01-10T09:02:56.461Z,1009.47
2018-01-10T09:03:56.436Z,1009.53
2018-01-10T09:04:56.411Z,1009.51
2018-01-10T09:05:56.386Z,1009.56
2018-01-10T09:06:56.363Z,1009.52
2018-01-10T09:07:56.336Z,1009.54
2018-01-10T09:08:56.311Z,1009.54
2018-01-10T09:09:56.538Z,1009.55
2018-01-10T09:10:56.264Z,1009.53
2018-01-10T09:11:56.237Z,1009.55
2018-01-10T09:12:56.212Z,1009.57
2018-01-10T09:13:56.189Z,1009.51
2018-01-10T09:14:56.163Z,1009.56
2018-01-10T09:15:56.138Z,1009.52
2018-01-10T09:16:56.115Z,1009.49
2018-01-10T09:17:56.090Z,1009.46
2018-01-10T09:18:56.065Z,1009.43
2018-01-10T09:19:56.046Z,1009.43
2018-01-10T09:20:56.015Z,1009.49
2018-01-10T09:21:55.992Z,1009.45
2018-01-10T09:22:55.966Z,1009.45
2018-01-10T09:23:55.941Z,1009.47
2018-01-10T09:24:55.916Z,1009.46
2018-01-10T09:25:55.893Z,1009.50
2018-01-10T09:26:56.118Z,1009.54
2018-01-10T09:27:55.842Z,1009.61
2018-01-10T09:28:55.818Z,1009.61
2018-01-10T09:29:55.793Z,1009.65
2018-01-10T09:30:55.770Z,1009.63
2018-01-10T09:31:55.894Z,1009.57
2018-01-10T09:32:55.719Z,1009.59
2018-01-10T09:33:55.695Z,1009.61
2018-01-10T09:34:55.670Z,1009.60
2018-01-10T09:35:55.645Z,1009.61
2018-01-10T09:36:55.622Z,1009.65
2018-01-10T09:37:55.598Z,1009.59
2018-01-10T09:38:55.574Z,1009.62
2018-01-10T09:39:55.547Z,1009.57
2018-01-10T09:40:55.523Z,1009.61
2018-01-10T09:41:55.500Z,1009.63
2018-01-10T09:42:55.475Z,1009.61
2018-01-10T09:43:55.451Z,1009.60
2018-01-10T09:44:55.426Z,1009.61
2018-01-10T09:45:55.403Z,1009.58
2018-01-10T09:46:55.631Z,1009.54
2018-01-10T09:47:55.353Z,1009.56
2018-01-10T09:48:55.330Z,1009.58
2018-01-10T09:49:55.307Z,1009.60
2018-01-10T09:50:55.282Z,1009.63
2018-01-10T09:51:55.258Z,1009.63
2018-01-10T09:52:55.233Z,1009.63
2018-01-10T09:53:55.209Z,1009.66
2018-01-10T09:54:55.186Z,1009.59
2018-01-10T09:55:55.161Z,1009.57
2018-01-10T09:56:55.236Z,1009.60
2018-01-10T09:57:55.113Z,1009.54
2018-01-10T09:58:55.090Z,1009.57
2018-01-10T09:59:55.064Z,1009.54
2018-01-10T10:00:55.041Z,1009.61
2018-01-10T10:01:55.016Z,1009.60
2018-01-10T10:02:54.992Z,1009.59
2018-01-10T10:03:54.967Z,1009.59
2018-01-10T10:04:54.944Z,1009.58
2018-01-10T10:05:54.931Z,1009.55
2018-01-10T10:06:55.198Z,1009.54
2018-01-10T10:07:54.871Z,1009.53
2018-01-10T10:08:54.848Z,1009.59
2018-01-10T10:09:54.825Z,1009.59
2018-01-10T10:10:54.802Z,1009.60
2018-01-10T10:11:54.776Z,1009.60
2018-01-10T10:12:54.757Z,1009.60
2018-01-10T10:13:54.729Z,1009.57
2018-01-10T10:14:54.706Z,1009.60
2018-01-10T10:15:54.681Z,1009.58
2018-01-10T10:16:54.658Z,1009.64
2018-01-10T10:17:54.636Z,1009.63
2018-01-10T10:18:54.612Z,1009.67
2018-01-10T10:19:54.587Z,1009.69
2018-01-10T10:20:54.665Z,1009.78
2018-01-10T10:21:54.542Z,1009.76
2018-01-10T10:22:54.518Z,1009.75
2018-01-10T10:23:54.494Z,1009.66
2018-01-10T10:24:54.471Z,1009.67
2018-01-10T10:25:54.449Z,1009.65
2018-01-10T10:26:54.426Z,1009.64
2018-01-10T10:27:54.402Z,1009.71
2018-01-10T10:28:54.378Z,1009.71
2018-01-10T10:29:54.356Z,1009.67
2018-01-10T10:30:54.335Z,1009.65
2018-01-10T10:31:54.314Z,1009.63
2018-01-10T10:32:54.287Z,1009.63
2018-01-10T10:33:54.263Z,1009.62
2018-01-10T10:34:54.241Z,1009.60
2018-01-10T10:35:54.217Z,1009.60
2018-01-10T10:36:54.195Z,1009.64
2018-01-10T10:37:54.173Z,1009.63
2018-01-10T10:38:54.151Z,1009.58
2018-01-10T10:39:54.129Z,1009.60
2018-01-10T10:40:54.109Z,1009.64
2018-01-10T10:41:54.085Z,1009.70
2018-01-10T10:42:54.064Z,1009.69
2018-01-10T10:43:54.042Z,1009.71
2018-01-10T10:44:54.018Z,1009.73
2018-01-10T10:45:53.995Z,1009.79
2018-01-10T10:46:53.975Z,1009.83
2018-01-10T10:47:53.951Z,1009.80
2018-01-10T10:48:53.929Z,1009.73
2018-01-10T10:49:53.907Z,1009.72
2018-01-10T10:50:54.139Z,1009.69
2018-01-10T10:51:53.863Z,1009.76
2018-01-10T10:52:53.842Z,1009.80
2018-01-10T10:53:53.821Z,1009.81
2018-01-10T10:54:53.797Z,1009.78
2018-01-10T10:55:53.876Z,1009.76
2018-01-10T10:56:53.753Z,1009.72
2018-01-10T10:57:53.730Z,1009.73
2018-01-10T10:58:53.710Z,1009.72
2018-01-10T10:59:53.685Z,1009.71
2018-01-10T11:00:53.914Z,1009.68
2018-01-10T11:01:53.642Z,1009.67
2018-01-10T11:02:53.644Z,1009.66
2018-01-10T11:03:53.597Z,1009.61
2018-01-10T11:04:53.574Z,1009.61
2018-01-10T11:05:53.553Z,1009.58
2018-01-10T11:06:53.529Z,1009.54
2018-01-10T11:07:53.508Z,1009.60
2018-01-10T11:08:53.483Z,1009.58
2018-01-10T11:09:53.463Z,1009.55
2018-01-10T11:10:53.541Z,1009.52
2018-01-10T11:11:53.417Z,1009.51
2018-01-10T11:12:53.395Z,1009.47
2018-01-10T11:13:53.374Z,1009.46
2018-01-10T11:14:53.352Z,1009.45
2018-01-10T11:15:53.329Z,1009.44
2018-01-10T11:16:53.306Z,1009.46
2018-01-10T11:17:53.285Z,1009.43
2018-01-10T11:18:53.264Z,1009.42
2018-01-10T11:19:53.241Z,1009.38
2018-01-10T11:20:53.220Z,1009.37
2018-01-10T11:21:53.200Z,1009.38
2018-01-10T11:22:53.179Z,1009.38
2018-01-10T11:23:53.157Z,1009.35
2018-01-10T11:24:53.135Z,1009.38
2018-01-10T11:25:53.113Z,1009.37
2018-01-10T11:26:53.094Z,1009.40
2018-01-10T11:27:53.071Z,1009.39
2018-01-10T11:28:53.050Z,1009.36
2018-01-10T11:29:53.029Z,1009.37
2018-01-10T11:30:53.009Z,1009.31
2018-01-10T11:31:52.988Z,1009.28
2018-01-10T11:32:52.966Z,1009.26
2018-01-10T11:33:53.197Z,1009.26
2018-01-10T11:34:52.925Z,1009.27
2018-01-10T11:35:52.902Z,1009.25
2018-01-10T11:36:52.883Z,1009.25
2018-01-10T11:37:52.861Z,1009.30
2018-01-10T11:38:52.842Z,1009.28
2018-01-10T11:39:52.819Z,1009.21
2018-01-10T11:40:52.798Z,1009.24
2018-01-10T11:41:52.778Z,1009.19
2018-01-10T11:42:52.757Z,1009.18
2018-01-10T11:43:52.836Z,1009.14
2018-01-10T11:44:52.715Z,1009.13
2018-01-10T11:45:52.695Z,1009.12
2018-01-10T11:46:52.675Z,1009.13
2018-01-10T11:47:52.654Z,1009.10
2018-01-10T11:48:52.935Z,1009.09
2018-01-10T11:49:52.613Z,1009.08
2018-01-10T11:50:52.592Z,1009.03
2018-01-10T11:51:52.627Z,1009.07
2018-01-10T11:52:52.551Z,1009.06
2018-01-10T11:53:53.332Z,1009.07
2018-01-10T11:54:52.519Z,1009.07
2018-01-10T11:55:52.488Z,1009.08
2018-01-10T11:56:52.467Z,1009.06
2018-01-10T11:57:52.446Z,1009.07
2018-01-10T11:58:52.425Z,1009.05
2018-01-10T11:59:52.404Z,1009.05
2018-01-10T12:00:52.383Z,1009.05
2018-01-10T12:01:52.362Z,1009.03
2018-01-10T12:02:52.342Z,1009.04
2018-01-10T12:03:52.318Z,1009.04
2018-01-10T12:04:52.297Z,1009.05
2018-01-10T12:05:52.276Z,1009.02
2018-01-10T12:06:52.255Z,1009.02
2018-01-10T12:07:52.234Z,1008.98
2018-01-10T12:08:52.213Z,1009.01